sensor_id;sensor_type;location;lat;lon;timestamp;temperature;humidity
21662;DHT22;10992;48.170;8.596;2023-04-24T00:00:26;9.00;99.90
21662;DHT22;10992;48.170;8.596;2023-04-24T00:02:53;9.00;99.90
21662;DHT22;10992;48.170;8.596;2023-04-24T00:05:24;9.00;99.90
21662;DHT22;10992;48.170;8.596;2023-04-24T00:07:51;9.00;99.90
21662;DHT22;10992;48.170;8.596;2023-04-24T00:10:21;9.00;99.90
21662;DHT22;10992;48.170;8.596;2023-04-24T00:12:49;9.00;99.90
21662;DHT22;10992;48.170;8.596;2023-04-24T00:15:15;9.00;99.90
21662;DHT22;10992;48.170;8.596;2023-04-24T00:17:42;9.00;99.90
21662;DHT22;10992;48.170;8.596;2023-04-24T00:20:09;8.90;99.90
21662;DHT22;10992;48.170;8.596;2023-04-24T00:22:40;9.00;99.90
21662;DHT22;10992;48.170;8.596;2023-04-24T00:25:08;9.00;99.90
21662;DHT22;10992;48.170;8.596;2023-04-24T00:27:35;8.90;99.90
21662;DHT22;10992;48.170;8.596;2023-04-24T00:30:04;8.80;99.90
21662;DHT22;10992;48.170;8.596;2023-04-24T00:32:31;8.90;99.90
21662;DHT22;10992;48.170;8.596;2023-04-24T00:34:58;8.80;99.90
21662;DHT22;10992;48.170;8.596;2023-04-24T00:37:25;8.80;99.90
21662;DHT22;10992;48.170;8.596;2023-04-24T00:39:52;8.80;99.90
21662;DHT22;10992;48.170;8.596;2023-04-24T00:42:19;8.80;99.90
21662;DHT22;10992;48.170;8.596;2023-04-24T00:44:46;8.80;99.90
21662;DHT22;10992;48.170;8.596;2023-04-24T00:47:13;8.80;99.90
21662;DHT22;10992;48.170;8.596;2023-04-24T00:49:41;8.80;99.90
21662;DHT22;10992;48.170;8.596;2023-04-24T00:52:08;8.80;99.90
21662;DHT22;10992;48.170;8.596;2023-04-24T00:54:35;8.80;99.90
21662;DHT22;10992;48.170;8.596;2023-04-24T00:57:03;8.80;99.90
21662;DHT22;10992;48.170;8.596;2023-04-24T00:59:30;8.80;99.90
21662;DHT22;10992;48.170;8.596;2023-04-24T01:01:58;8.70;99.90
21662;DHT22;10992;48.170;8.596;2023-04-24T01:04:26;8.80;99.90
21662;DHT22;10992;48.170;8.596;2023-04-24T01:06:55;8.80;99.90
21662;DHT22;10992;48.170;8.596;2023-04-24T01:09:23;8.70;99.90
21662;DHT22;10992;48.170;8.596;2023-04-24T01:11:51;8.70;99.90
21662;DHT22;10992;48.170;8.596;2023-04-24T01:14:18;8.70;99.90
21662;DHT22;10992;48.170;8.596;2023-04-24T01:16:44;8.70;99.90
21662;DHT22;10992;48.170;8.596;2023-04-24T01:19:12;8.70;99.90
21662;DHT22;10992;48.170;8.596;2023-04-24T01:21:40;8.70;99.90
21662;DHT22;10992;48.170;8.596;2023-04-24T01:24:08;8.70;99.90
21662;DHT22;10992;48.170;8.596;2023-04-24T01:26:35;8.70;99.90
21662;DHT22;10992;48.170;8.596;2023-04-24T01:29:02;8.60;99.90
21662;DHT22;10992;48.170;8.596;2023-04-24T01:31:29;8.70;99.90
21662;DHT22;10992;48.170;8.596;2023-04-24T01:33:57;8.70;99.90
21662;DHT22;10992;48.170;8.596;2023-04-24T01:36:24;8.60;99.90
21662;DHT22;10992;48.170;8.596;2023-04-24T01:38:54;8.60;99.90
21662;DHT22;10992;48.170;8.596;2023-04-24T01:41:21;8.70;99.90
21662;DHT22;10992;48.170;8.596;2023-04-24T01:43:51;8.70;99.90
21662;DHT22;10992;48.170;8.596;2023-04-24T01:46:25;8.60;99.90
21662;DHT22;10992;48.170;8.596;2023-04-24T01:48:52;8.60;99.90
21662;DHT22;10992;48.170;8.596;2023-04-24T01:51:19;8.60;99.90
21662;DHT22;10992;48.170;8.596;2023-04-24T01:53:46;8.60;99.90
21662;DHT22;10992;48.170;8.596;2023-04-24T01:56:21;8.60;99.90
21662;DHT22;10992;48.170;8.596;2023-04-24T01:58:52;8.50;99.90
21662;DHT22;10992;48.170;8.596;2023-04-24T02:01:20;8.40;99.90
21662;DHT22;10992;48.170;8.596;2023-04-24T02:03:47;8.40;99.90
21662;DHT22;10992;48.170;8.596;2023-04-24T02:06:15;8.30;99.90
21662;DHT22;10992;48.170;8.596;2023-04-24T02:08:42;8.20;99.90
21662;DHT22;10992;48.170;8.596;2023-04-24T02:11:09;8.20;99.90
21662;DHT22;10992;48.170;8.596;2023-04-24T02:13:36;8.10;99.90
21662;DHT22;10992;48.170;8.596;2023-04-24T02:16:03;8.10;99.90
21662;DHT22;10992;48.170;8.596;2023-04-24T02:18:30;8.00;99.90
21662;DHT22;10992;48.170;8.596;2023-04-24T02:20:57;8.00;99.90
21662;DHT22;10992;48.170;8.596;2023-04-24T02:23:24;8.00;99.90
21662;DHT22;10992;48.170;8.596;2023-04-24T02:25:50;8.00;99.90
21662;DHT22;10992;48.170;8.596;2023-04-24T02:28:20;8.00;99.90
21662;DHT22;10992;48.170;8.596;2023-04-24T02:30:46;8.00;99.90
21662;DHT22;10992;48.170;8.596;2023-04-24T02:33:13;7.90;99.90
21662;DHT22;10992;48.170;8.596;2023-04-24T02:35:40;7.90;99.90
21662;DHT22;10992;48.170;8.596;2023-04-24T02:38:07;7.90;99.90
21662;DHT22;10992;48.170;8.596;2023-04-24T02:40:35;7.90;99.90
21662;DHT22;10992;48.170;8.596;2023-04-24T02:43:05;7.90;99.90
21662;DHT22;10992;48.170;8.596;2023-04-24T02:45:32;7.90;99.90
21662;DHT22;10992;48.170;8.596;2023-04-24T02:48:01;7.90;99.90
21662;DHT22;10992;48.170;8.596;2023-04-24T02:50:28;7.90;99.90
21662;DHT22;10992;48.170;8.596;2023-04-24T02:52:55;8.00;99.90
21662;DHT22;10992;48.170;8.596;2023-04-24T02:55:26;7.90;99.90
21662;DHT22;10992;48.170;8.596;2023-04-24T02:57:53;7.90;99.90
21662;DHT22;10992;48.170;8.596;2023-04-24T03:00:20;7.80;99.90
21662;DHT22;10992;48.170;8.596;2023-04-24T03:02:50;7.80;99.90
21662;DHT22;10992;48.170;8.596;2023-04-24T03:05:17;7.70;99.90
21662;DHT22;10992;48.170;8.596;2023-04-24T03:07:44;7.60;99.90
21662;DHT22;10992;48.170;8.596;2023-04-24T03:10:12;7.70;99.90
21662;DHT22;10992;48.170;8.596;2023-04-24T03:12:39;7.70;99.90
21662;DHT22;10992;48.170;8.596;2023-04-24T03:15:08;7.70;99.90
21662;DHT22;10992;48.170;8.596;2023-04-24T03:17:36;7.70;99.90
21662;DHT22;10992;48.170;8.596;2023-04-24T03:20:09;7.80;99.90
21662;DHT22;10992;48.170;8.596;2023-04-24T03:22:37;7.80;99.90
21662;DHT22;10992;48.170;8.596;2023-04-24T03:25:06;7.80;99.90
21662;DHT22;10992;48.170;8.596;2023-04-24T03:27:36;7.70;99.90
21662;DHT22;10992;48.170;8.596;2023-04-24T03:30:14;7.70;99.90
21662;DHT22;10992;48.170;8.596;2023-04-24T03:32:49;7.70;99.90
21662;DHT22;10992;48.170;8.596;2023-04-24T03:35:31;7.70;99.90
21662;DHT22;10992;48.170;8.596;2023-04-24T03:38:01;7.70;99.90
21662;DHT22;10992;48.170;8.596;2023-04-24T03:40:48;7.70;99.90
21662;DHT22;10992;48.170;8.596;2023-04-24T03:43:37;7.70;99.90
21662;DHT22;10992;48.170;8.596;2023-04-24T03:46:06;7.60;99.90
21662;DHT22;10992;48.170;8.596;2023-04-24T03:48:39;7.60;99.90
21662;DHT22;10992;48.170;8.596;2023-04-24T03:51:08;7.60;99.90
21662;DHT22;10992;48.170;8.596;2023-04-24T03:53:37;7.60;99.90
21662;DHT22;10992;48.170;8.596;2023-04-24T03:56:04;7.50;99.90
21662;DHT22;10992;48.170;8.596;2023-04-24T03:58:32;7.50;99.90
21662;DHT22;10992;48.170;8.596;2023-04-24T04:00:59;7.50;99.90
21662;DHT22;10992;48.170;8.596;2023-04-24T04:03:52;7.50;99.90
21662;DHT22;10992;48.170;8.596;2023-04-24T04:06:23;7.50;99.90
21662;DHT22;10992;48.170;8.596;2023-04-24T04:08:52;7.50;99.90
21662;DHT22;10992;48.170;8.596;2023-04-24T04:11:21;7.60;99.90
21662;DHT22;10992;48.170;8.596;2023-04-24T04:13:48;7.60;99.90
21662;DHT22;10992;48.170;8.596;2023-04-24T04:16:18;7.60;99.90
21662;DHT22;10992;48.170;8.596;2023-04-24T04:18:48;7.50;99.90
21662;DHT22;10992;48.170;8.596;2023-04-24T04:21:15;7.60;99.90
21662;DHT22;10992;48.170;8.596;2023-04-24T04:23:43;7.50;99.90
21662;DHT22;10992;48.170;8.596;2023-04-24T04:26:17;7.50;99.90
21662;DHT22;10992;48.170;8.596;2023-04-24T04:28:59;7.50;99.90
21662;DHT22;10992;48.170;8.596;2023-04-24T04:31:28;7.60;99.90
21662;DHT22;10992;48.170;8.596;2023-04-24T04:33:56;7.60;99.90
21662;DHT22;10992;48.170;8.596;2023-04-24T04:36:23;7.10;99.90
21662;DHT22;10992;48.170;8.596;2023-04-24T04:38:57;6.90;99.90
21662;DHT22;10992;48.170;8.596;2023-04-24T04:41:44;6.70;99.90
21662;DHT22;10992;48.170;8.596;2023-04-24T04:44:17;6.50;99.90
21662;DHT22;10992;48.170;8.596;2023-04-24T04:46:44;6.40;99.90
21662;DHT22;10992;48.170;8.596;2023-04-24T04:49:29;6.30;99.90
21662;DHT22;10992;48.170;8.596;2023-04-24T04:51:57;6.20;99.90
21662;DHT22;10992;48.170;8.596;2023-04-24T04:54:25;6.10;99.90
21662;DHT22;10992;48.170;8.596;2023-04-24T04:56:53;6.10;99.90
21662;DHT22;10992;48.170;8.596;2023-04-24T04:59:20;6.00;99.90
21662;DHT22;10992;48.170;8.596;2023-04-24T05:01:51;5.90;99.90
21662;DHT22;10992;48.170;8.596;2023-04-24T05:04:19;5.90;99.90
21662;DHT22;10992;48.170;8.596;2023-04-24T05:06:49;5.90;99.90
21662;DHT22;10992;48.170;8.596;2023-04-24T05:09:19;6.00;99.90
21662;DHT22;10992;48.170;8.596;2023-04-24T05:11:51;6.00;99.90
21662;DHT22;10992;48.170;8.596;2023-04-24T05:14:18;6.00;99.90
21662;DHT22;10992;48.170;8.596;2023-04-24T05:16:45;6.10;99.90
21662;DHT22;10992;48.170;8.596;2023-04-24T05:19:14;6.10;99.90
21662;DHT22;10992;48.170;8.596;2023-04-24T05:21:45;6.20;99.90
21662;DHT22;10992;48.170;8.596;2023-04-24T05:24:12;6.20;99.90
21662;DHT22;10992;48.170;8.596;2023-04-24T05:26:59;6.30;99.90
21662;DHT22;10992;48.170;8.596;2023-04-24T05:29:33;6.40;99.90
21662;DHT22;10992;48.170;8.596;2023-04-24T05:32:00;6.60;99.90
21662;DHT22;10992;48.170;8.596;2023-04-24T05:34:29;6.70;99.90
21662;DHT22;10992;48.170;8.596;2023-04-24T05:36:57;7.20;99.90
21662;DHT22;10992;48.170;8.596;2023-04-24T05:39:25;8.70;99.90
21662;DHT22;10992;48.170;8.596;2023-04-24T05:41:53;8.70;99.90
21662;DHT22;10992;48.170;8.596;2023-04-24T05:44:20;8.40;99.90
21662;DHT22;10992;48.170;8.596;2023-04-24T05:46:47;8.50;99.90
21662;DHT22;10992;48.170;8.596;2023-04-24T05:49:15;9.70;99.90
21662;DHT22;10992;48.170;8.596;2023-04-24T05:51:42;10.30;99.90
21662;DHT22;10992;48.170;8.596;2023-04-24T05:54:10;11.20;99.90
21662;DHT22;10992;48.170;8.596;2023-04-24T05:56:39;12.80;99.90
21662;DHT22;10992;48.170;8.596;2023-04-24T05:59:11;13.70;99.90
21662;DHT22;10992;48.170;8.596;2023-04-24T06:01:38;13.80;99.90
21662;DHT22;10992;48.170;8.596;2023-04-24T06:04:12;13.40;99.90
21662;DHT22;10992;48.170;8.596;2023-04-24T06:06:40;12.40;99.90
21662;DHT22;10992;48.170;8.596;2023-04-24T06:09:08;10.80;99.90
21662;DHT22;10992;48.170;8.596;2023-04-24T06:11:35;10.10;99.90
21662;DHT22;10992;48.170;8.596;2023-04-24T06:14:02;9.70;99.90
21662;DHT22;10992;48.170;8.596;2023-04-24T06:16:50;10.00;99.90
21662;DHT22;10992;48.170;8.596;2023-04-24T06:19:32;10.60;99.90
21662;DHT22;10992;48.170;8.596;2023-04-24T06:21:59;10.80;99.90
21662;DHT22;10992;48.170;8.596;2023-04-24T06:24:29;10.70;99.90
21662;DHT22;10992;48.170;8.596;2023-04-24T06:27:00;10.30;99.90
21662;DHT22;10992;48.170;8.596;2023-04-24T06:29:28;9.80;99.90
21662;DHT22;10992;48.170;8.596;2023-04-24T06:31:55;9.30;99.90
21662;DHT22;10992;48.170;8.596;2023-04-24T06:34:22;8.60;99.90
21662;DHT22;10992;48.170;8.596;2023-04-24T06:36:48;8.60;99.90
21662;DHT22;10992;48.170;8.596;2023-04-24T06:39:16;8.50;99.90
21662;DHT22;10992;48.170;8.596;2023-04-24T06:41:43;8.60;99.90
21662;DHT22;10992;48.170;8.596;2023-04-24T06:44:18;9.60;99.90
21662;DHT22;10992;48.170;8.596;2023-04-24T06:46:45;10.70;99.90
21662;DHT22;10992;48.170;8.596;2023-04-24T06:49:12;11.50;99.90
21662;DHT22;10992;48.170;8.596;2023-04-24T06:51:39;12.20;99.90
21662;DHT22;10992;48.170;8.596;2023-04-24T06:54:06;13.00;99.90
21662;DHT22;10992;48.170;8.596;2023-04-24T06:56:33;13.50;99.90
21662;DHT22;10992;48.170;8.596;2023-04-24T06:59:01;14.30;99.90
21662;DHT22;10992;48.170;8.596;2023-04-24T07:01:27;14.50;99.90
21662;DHT22;10992;48.170;8.596;2023-04-24T07:03:54;14.00;99.90
21662;DHT22;10992;48.170;8.596;2023-04-24T07:06:22;14.00;99.90
21662;DHT22;10992;48.170;8.596;2023-04-24T07:08:50;13.80;99.90
21662;DHT22;10992;48.170;8.596;2023-04-24T07:11:17;13.20;99.90
21662;DHT22;10992;48.170;8.596;2023-04-24T07:13:44;12.50;99.90
21662;DHT22;10992;48.170;8.596;2023-04-24T07:16:11;11.90;99.90
21662;DHT22;10992;48.170;8.596;2023-04-24T07:18:39;11.40;99.90
21662;DHT22;10992;48.170;8.596;2023-04-24T07:21:06;10.90;99.90
21662;DHT22;10992;48.170;8.596;2023-04-24T07:23:33;10.50;99.90
21662;DHT22;10992;48.170;8.596;2023-04-24T07:26:00;10.30;99.90
21662;DHT22;10992;48.170;8.596;2023-04-24T07:28:27;10.30;99.90
21662;DHT22;10992;48.170;8.596;2023-04-24T07:30:57;10.20;99.90
21662;DHT22;10992;48.170;8.596;2023-04-24T07:33:26;10.10;99.90
21662;DHT22;10992;48.170;8.596;2023-04-24T07:35:53;10.30;99.90
21662;DHT22;10992;48.170;8.596;2023-04-24T07:38:20;10.40;99.90
21662;DHT22;10992;48.170;8.596;2023-04-24T07:40:58;10.20;99.90
21662;DHT22;10992;48.170;8.596;2023-04-24T07:43:24;10.00;99.90
21662;DHT22;10992;48.170;8.596;2023-04-24T07:45:51;9.80;99.90
21662;DHT22;10992;48.170;8.596;2023-04-24T07:48:19;9.60;99.90
21662;DHT22;10992;48.170;8.596;2023-04-24T07:50:48;9.40;99.90
21662;DHT22;10992;48.170;8.596;2023-04-24T07:53:15;9.50;99.90
21662;DHT22;10992;48.170;8.596;2023-04-24T07:55:41;9.40;99.90
21662;DHT22;10992;48.170;8.596;2023-04-24T07:58:08;9.80;99.90
21662;DHT22;10992;48.170;8.596;2023-04-24T08:00:36;10.50;99.90
21662;DHT22;10992;48.170;8.596;2023-04-24T08:03:03;10.60;99.90
21662;DHT22;10992;48.170;8.596;2023-04-24T08:05:31;10.50;99.90
21662;DHT22;10992;48.170;8.596;2023-04-24T08:07:58;10.30;99.90
21662;DHT22;10992;48.170;8.596;2023-04-24T08:10:29;10.20;99.90
21662;DHT22;10992;48.170;8.596;2023-04-24T08:12:56;10.20;99.90
21662;DHT22;10992;48.170;8.596;2023-04-24T08:15:23;11.80;99.90
21662;DHT22;10992;48.170;8.596;2023-04-24T08:17:50;13.40;99.90
21662;DHT22;10992;48.170;8.596;2023-04-24T08:20:17;15.00;99.90
21662;DHT22;10992;48.170;8.596;2023-04-24T08:22:44;15.70;99.90
21662;DHT22;10992;48.170;8.596;2023-04-24T08:25:11;15.00;99.90
21662;DHT22;10992;48.170;8.596;2023-04-24T08:27:38;13.50;99.90
21662;DHT22;10992;48.170;8.596;2023-04-24T08:30:06;12.30;99.90
21662;DHT22;10992;48.170;8.596;2023-04-24T08:32:33;12.10;99.90
21662;DHT22;10992;48.170;8.596;2023-04-24T08:35:00;12.10;99.90
21662;DHT22;10992;48.170;8.596;2023-04-24T08:37:33;12.90;99.90
21662;DHT22;10992;48.170;8.596;2023-04-24T08:40:01;13.40;99.90
21662;DHT22;10992;48.170;8.596;2023-04-24T08:42:28;13.40;99.90
21662;DHT22;10992;48.170;8.596;2023-04-24T08:44:56;12.80;99.90
21662;DHT22;10992;48.170;8.596;2023-04-24T08:47:25;12.60;99.90
21662;DHT22;10992;48.170;8.596;2023-04-24T08:49:54;12.70;99.90
21662;DHT22;10992;48.170;8.596;2023-04-24T08:52:22;13.30;99.90
21662;DHT22;10992;48.170;8.596;2023-04-24T08:54:53;13.80;99.90
21662;DHT22;10992;48.170;8.596;2023-04-24T08:57:20;12.90;99.90
21662;DHT22;10992;48.170;8.596;2023-04-24T08:59:48;11.70;99.90
21662;DHT22;10992;48.170;8.596;2023-04-24T09:02:16;10.60;99.90
21662;DHT22;10992;48.170;8.596;2023-04-24T09:04:44;10.00;99.90
21662;DHT22;10992;48.170;8.596;2023-04-24T09:07:12;9.50;99.90
21662;DHT22;10992;48.170;8.596;2023-04-24T09:09:41;9.10;99.90
21662;DHT22;10992;48.170;8.596;2023-04-24T09:12:09;8.90;99.90
21662;DHT22;10992;48.170;8.596;2023-04-24T09:14:37;9.00;99.90
21662;DHT22;10992;48.170;8.596;2023-04-24T09:17:12;9.00;99.90
21662;DHT22;10992;48.170;8.596;2023-04-24T09:19:40;9.30;99.90
21662;DHT22;10992;48.170;8.596;2023-04-24T09:22:08;9.50;99.90
21662;DHT22;10992;48.170;8.596;2023-04-24T09:24:35;9.40;99.90
21662;DHT22;10992;48.170;8.596;2023-04-24T09:27:03;9.30;99.90
21662;DHT22;10992;48.170;8.596;2023-04-24T09:29:30;9.30;99.90
21662;DHT22;10992;48.170;8.596;2023-04-24T09:31:59;9.40;99.90
21662;DHT22;10992;48.170;8.596;2023-04-24T09:34:47;9.70;99.90
21662;DHT22;10992;48.170;8.596;2023-04-24T09:37:30;10.40;99.90
21662;DHT22;10992;48.170;8.596;2023-04-24T09:40:18;10.40;99.90
21662;DHT22;10992;48.170;8.596;2023-04-24T09:42:51;10.50;99.90
21662;DHT22;10992;48.170;8.596;2023-04-24T09:45:20;10.70;99.90
21662;DHT22;10992;48.170;8.596;2023-04-24T09:47:51;11.70;99.90
21662;DHT22;10992;48.170;8.596;2023-04-24T09:50:18;12.60;99.90
21662;DHT22;10992;48.170;8.596;2023-04-24T09:52:59;13.70;99.90
21662;DHT22;10992;48.170;8.596;2023-04-24T09:55:28;14.20;99.90
21662;DHT22;10992;48.170;8.596;2023-04-24T09:58:00;14.90;99.90
21662;DHT22;10992;48.170;8.596;2023-04-24T10:00:32;14.90;99.90
21662;DHT22;10992;48.170;8.596;2023-04-24T10:03:06;15.50;99.90
21662;DHT22;10992;48.170;8.596;2023-04-24T10:05:35;15.40;99.90
21662;DHT22;10992;48.170;8.596;2023-04-24T10:08:07;15.60;99.90
21662;DHT22;10992;48.170;8.596;2023-04-24T10:10:41;15.90;99.90
21662;DHT22;10992;48.170;8.596;2023-04-24T10:13:09;15.60;99.90
21662;DHT22;10992;48.170;8.596;2023-04-24T10:15:38;14.50;99.90
21662;DHT22;10992;48.170;8.596;2023-04-24T10:18:05;13.60;99.90
21662;DHT22;10992;48.170;8.596;2023-04-24T10:20:38;13.10;99.90
21662;DHT22;10992;48.170;8.596;2023-04-24T10:23:06;12.40;99.90
21662;DHT22;10992;48.170;8.596;2023-04-24T10:25:50;12.10;99.90
21662;DHT22;10992;48.170;8.596;2023-04-24T10:28:19;11.80;99.90
21662;DHT22;10992;48.170;8.596;2023-04-24T10:30:49;12.60;99.90
21662;DHT22;10992;48.170;8.596;2023-04-24T10:33:25;14.40;99.90
21662;DHT22;10992;48.170;8.596;2023-04-24T10:35:52;14.40;99.90
21662;DHT22;10992;48.170;8.596;2023-04-24T10:38:25;14.70;99.90
21662;DHT22;10992;48.170;8.596;2023-04-24T10:41:13;15.20;99.90
21662;DHT22;10992;48.170;8.596;2023-04-24T10:43:46;15.30;99.90
21662;DHT22;10992;48.170;8.596;2023-04-24T10:46:20;15.10;99.90
21662;DHT22;10992;48.170;8.596;2023-04-24T10:48:53;13.90;99.90
21662;DHT22;10992;48.170;8.596;2023-04-24T10:51:42;13.40;99.90
21662;DHT22;10992;48.170;8.596;2023-04-24T10:54:35;13.60;99.90
21662;DHT22;10992;48.170;8.596;2023-04-24T10:59:52;13.90;99.90
21662;DHT22;10992;48.170;8.596;2023-04-24T11:02:37;13.50;99.90
21662;DHT22;10992;48.170;8.596;2023-04-24T11:05:08;14.10;99.90
21662;DHT22;10992;48.170;8.596;2023-04-24T11:08:23;15.00;99.90
21662;DHT22;10992;48.170;8.596;2023-04-24T11:11:02;15.10;99.90
21662;DHT22;10992;48.170;8.596;2023-04-24T11:16:25;15.10;99.90
21662;DHT22;10992;48.170;8.596;2023-04-24T11:21:43;14.00;99.90
21662;DHT22;10992;48.170;8.596;2023-04-24T11:32:26;13.00;99.90
21662;DHT22;10992;48.170;8.596;2023-04-24T11:37:36;13.20;99.90
21662;DHT22;10992;48.170;8.596;2023-04-24T11:40:05;13.70;99.90
21662;DHT22;10992;48.170;8.596;2023-04-24T11:42:40;13.80;99.90
21662;DHT22;10992;48.170;8.596;2023-04-24T11:45:10;13.90;99.90
21662;DHT22;10992;48.170;8.596;2023-04-24T11:47:38;14.60;99.90
21662;DHT22;10992;48.170;8.596;2023-04-24T11:50:08;15.80;99.90
21662;DHT22;10992;48.170;8.596;2023-04-24T11:52:43;16.50;99.90
21662;DHT22;10992;48.170;8.596;2023-04-24T11:57:50;15.50;99.90
21662;DHT22;10992;48.170;8.596;2023-04-24T12:00:20;15.30;99.90
21662;DHT22;10992;48.170;8.596;2023-04-24T12:02:48;15.40;99.90
21662;DHT22;10992;48.170;8.596;2023-04-24T12:05:27;16.30;99.90
21662;DHT22;10992;48.170;8.596;2023-04-24T12:07:57;16.50;99.90
21662;DHT22;10992;48.170;8.596;2023-04-24T12:10:26;15.80;99.90
21662;DHT22;10992;48.170;8.596;2023-04-24T12:12:55;15.40;99.90
21662;DHT22;10992;48.170;8.596;2023-04-24T12:15:22;14.80;99.90
21662;DHT22;10992;48.170;8.596;2023-04-24T12:17:54;14.30;99.90
21662;DHT22;10992;48.170;8.596;2023-04-24T12:20:29;14.10;99.90
21662;DHT22;10992;48.170;8.596;2023-04-24T12:22:57;13.90;99.90
21662;DHT22;10992;48.170;8.596;2023-04-24T12:25:32;13.80;99.90
21662;DHT22;10992;48.170;8.596;2023-04-24T12:30:33;13.00;99.90
21662;DHT22;10992;48.170;8.596;2023-04-24T12:33:02;13.40;99.90
21662;DHT22;10992;48.170;8.596;2023-04-24T12:35:31;14.10;99.90
21662;DHT22;10992;48.170;8.596;2023-04-24T12:38:22;14.70;99.90
21662;DHT22;10992;48.170;8.596;2023-04-24T12:41:05;15.00;99.90
21662;DHT22;10992;48.170;8.596;2023-04-24T12:43:36;15.30;99.90
21662;DHT22;10992;48.170;8.596;2023-04-24T12:46:16;14.90;99.90
21662;DHT22;10992;48.170;8.596;2023-04-24T12:48:49;14.70;99.90
21662;DHT22;10992;48.170;8.596;2023-04-24T12:51:19;14.70;99.90
21662;DHT22;10992;48.170;8.596;2023-04-24T12:53:49;15.00;99.90
21662;DHT22;10992;48.170;8.596;2023-04-24T12:56:19;15.00;99.90
21662;DHT22;10992;48.170;8.596;2023-04-24T12:58:54;14.80;99.90
21662;DHT22;10992;48.170;8.596;2023-04-24T13:01:21;14.60;99.90
21662;DHT22;10992;48.170;8.596;2023-04-24T13:03:53;14.10;99.90
21662;DHT22;10992;48.170;8.596;2023-04-24T13:06:32;13.80;99.90
21662;DHT22;10992;48.170;8.596;2023-04-24T13:09:08;13.50;99.90
21662;DHT22;10992;48.170;8.596;2023-04-24T13:11:50;14.00;99.90
21662;DHT22;10992;48.170;8.596;2023-04-24T13:14:20;14.30;99.90
21662;DHT22;10992;48.170;8.596;2023-04-24T13:16:47;14.00;99.90
21662;DHT22;10992;48.170;8.596;2023-04-24T13:19:23;13.80;99.90
21662;DHT22;10992;48.170;8.596;2023-04-24T13:21:50;14.10;99.90
21662;DHT22;10992;48.170;8.596;2023-04-24T13:24:24;14.20;99.90
21662;DHT22;10992;48.170;8.596;2023-04-24T13:26:52;14.40;99.90
21662;DHT22;10992;48.170;8.596;2023-04-24T13:31:50;14.10;99.90
21662;DHT22;10992;48.170;8.596;2023-04-24T13:34:18;14.00;99.90
21662;DHT22;10992;48.170;8.596;2023-04-24T13:36:50;14.10;99.90
21662;DHT22;10992;48.170;8.596;2023-04-24T13:39:23;14.20;99.90
21662;DHT22;10992;48.170;8.596;2023-04-24T13:41:54;14.10;99.90
21662;DHT22;10992;48.170;8.596;2023-04-24T13:44:22;14.00;99.90
21662;DHT22;10992;48.170;8.596;2023-04-24T13:46:53;14.00;99.90
21662;DHT22;10992;48.170;8.596;2023-04-24T13:49:23;13.30;99.90
21662;DHT22;10992;48.170;8.596;2023-04-24T13:51:56;13.40;99.90
21662;DHT22;10992;48.170;8.596;2023-04-24T13:54:26;13.20;99.90
21662;DHT22;10992;48.170;8.596;2023-04-24T13:56:59;13.10;99.90
21662;DHT22;10992;48.170;8.596;2023-04-24T13:59:28;12.80;99.90
21662;DHT22;10992;48.170;8.596;2023-04-24T14:01:55;12.80;99.90
21662;DHT22;10992;48.170;8.596;2023-04-24T14:04:23;12.80;99.90
21662;DHT22;10992;48.170;8.596;2023-04-24T14:07:03;12.60;99.90
21662;DHT22;10992;48.170;8.596;2023-04-24T14:09:34;12.80;99.90
21662;DHT22;10992;48.170;8.596;2023-04-24T14:12:15;12.90;99.90
21662;DHT22;10992;48.170;8.596;2023-04-24T14:14:47;12.70;99.90
21662;DHT22;10992;48.170;8.596;2023-04-24T14:17:27;12.70;99.90
21662;DHT22;10992;48.170;8.596;2023-04-24T14:20:06;12.90;99.90
21662;DHT22;10992;48.170;8.596;2023-04-24T14:22:41;13.30;99.90
21662;DHT22;10992;48.170;8.596;2023-04-24T14:25:09;13.50;99.90
21662;DHT22;10992;48.170;8.596;2023-04-24T14:27:37;13.40;99.90
21662;DHT22;10992;48.170;8.596;2023-04-24T14:30:07;13.60;99.90
21662;DHT22;10992;48.170;8.596;2023-04-24T14:32:34;14.30;99.90
21662;DHT22;10992;48.170;8.596;2023-04-24T14:35:02;14.90;99.90
21662;DHT22;10992;48.170;8.596;2023-04-24T14:37:29;14.80;99.90
21662;DHT22;10992;48.170;8.596;2023-04-24T14:39:56;15.40;99.90
21662;DHT22;10992;48.170;8.596;2023-04-24T14:42:43;15.50;99.90
21662;DHT22;10992;48.170;8.596;2023-04-24T14:45:11;15.60;99.90
21662;DHT22;10992;48.170;8.596;2023-04-24T14:47:37;16.00;99.90
21662;DHT22;10992;48.170;8.596;2023-04-24T14:50:05;15.00;99.90
21662;DHT22;10992;48.170;8.596;2023-04-24T14:52:33;15.50;99.90
21662;DHT22;10992;48.170;8.596;2023-04-24T14:55:05;15.60;99.90
21662;DHT22;10992;48.170;8.596;2023-04-24T14:57:34;15.70;99.90
21662;DHT22;10992;48.170;8.596;2023-04-24T15:00:04;15.10;99.90
21662;DHT22;10992;48.170;8.596;2023-04-24T15:02:34;14.70;99.90
21662;DHT22;10992;48.170;8.596;2023-04-24T15:05:05;14.10;99.90
21662;DHT22;10992;48.170;8.596;2023-04-24T15:07:33;14.20;99.90
21662;DHT22;10992;48.170;8.596;2023-04-24T15:10:03;14.20;99.90
21662;DHT22;10992;48.170;8.596;2023-04-24T15:12:30;13.90;99.90
21662;DHT22;10992;48.170;8.596;2023-04-24T15:14:58;13.80;99.90
21662;DHT22;10992;48.170;8.596;2023-04-24T15:17:26;13.20;99.90
21662;DHT22;10992;48.170;8.596;2023-04-24T15:19:53;12.70;99.90
21662;DHT22;10992;48.170;8.596;2023-04-24T15:22:20;12.40;99.90
21662;DHT22;10992;48.170;8.596;2023-04-24T15:24:47;12.20;99.90
21662;DHT22;10992;48.170;8.596;2023-04-24T15:27:14;12.00;99.90
21662;DHT22;10992;48.170;8.596;2023-04-24T15:29:41;11.90;99.90
21662;DHT22;10992;48.170;8.596;2023-04-24T15:32:10;11.70;99.90
21662;DHT22;10992;48.170;8.596;2023-04-24T15:34:37;11.50;99.90
21662;DHT22;10992;48.170;8.596;2023-04-24T15:37:04;11.50;99.90
21662;DHT22;10992;48.170;8.596;2023-04-24T15:39:31;11.40;99.90
21662;DHT22;10992;48.170;8.596;2023-04-24T15:41:59;11.30;99.90
21662;DHT22;10992;48.170;8.596;2023-04-24T15:44:30;11.10;99.90
21662;DHT22;10992;48.170;8.596;2023-04-24T15:47:00;11.00;99.90
21662;DHT22;10992;48.170;8.596;2023-04-24T15:49:29;10.50;99.90
21662;DHT22;10992;48.170;8.596;2023-04-24T15:51:57;10.20;99.90
21662;DHT22;10992;48.170;8.596;2023-04-24T15:54:24;10.00;99.90
21662;DHT22;10992;48.170;8.596;2023-04-24T15:56:51;9.70;99.90
21662;DHT22;10992;48.170;8.596;2023-04-24T15:59:18;9.40;99.90
21662;DHT22;10992;48.170;8.596;2023-04-24T16:01:45;9.30;99.90
21662;DHT22;10992;48.170;8.596;2023-04-24T16:04:16;9.20;99.90
21662;DHT22;10992;48.170;8.596;2023-04-24T16:06:43;9.60;99.90
21662;DHT22;10992;48.170;8.596;2023-04-24T16:09:10;10.30;99.90
21662;DHT22;10992;48.170;8.596;2023-04-24T16:11:39;10.70;99.90
21662;DHT22;10992;48.170;8.596;2023-04-24T16:14:06;11.00;99.90
21662;DHT22;10992;48.170;8.596;2023-04-24T16:16:36;10.80;99.90
21662;DHT22;10992;48.170;8.596;2023-04-24T16:19:03;10.60;99.90
21662;DHT22;10992;48.170;8.596;2023-04-24T16:21:32;10.50;99.90